sensor_id;sensor_type;location;lat;lon;timestamp;temperature;humidity
30288;DHT22;17103;48.316;11.558;2023-08-12T00:01:09;25.90;41.50
30288;DHT22;17103;48.316;11.558;2023-08-12T00:03:35;25.90;41.60
30288;DHT22;17103;48.316;11.558;2023-08-12T00:06:01;25.90;41.60
30288;DHT22;17103;48.316;11.558;2023-08-12T00:08:27;25.80;41.60
30288;DHT22;17103;48.316;11.558;2023-08-12T00:10:54;25.80;41.70
30288;DHT22;17103;48.316;11.558;2023-08-12T00:13:20;25.80;41.80
30288;DHT22;17103;48.316;11.558;2023-08-12T00:15:46;25.70;41.80
30288;DHT22;17103;48.316;11.558;2023-08-12T00:18:11;25.70;41.80
30288;DHT22;17103;48.316;11.558;2023-08-12T00:20:37;25.70;42.00
30288;DHT22;17103;48.316;11.558;2023-08-12T00:23:04;25.70;42.00
30288;DHT22;17103;48.316;11.558;2023-08-12T00:25:29;25.70;42.00
30288;DHT22;17103;48.316;11.558;2023-08-12T00:27:55;25.60;41.90
30288;DHT22;17103;48.316;11.558;2023-08-12T00:30:23;25.60;42.00
30288;DHT22;17103;48.316;11.558;2023-08-12T00:32:49;25.60;42.20
30288;DHT22;17103;48.316;11.558;2023-08-12T00:35:19;25.50;42.00
30288;DHT22;17103;48.316;11.558;2023-08-12T00:37:45;25.40;42.20
30288;DHT22;17103;48.316;11.558;2023-08-12T00:40:11;25.50;42.10
30288;DHT22;17103;48.316;11.558;2023-08-12T00:42:39;25.40;42.10
30288;DHT22;17103;48.316;11.558;2023-08-12T00:45:11;25.30;42.30
30288;DHT22;17103;48.316;11.558;2023-08-12T00:47:40;25.30;42.50
30288;DHT22;17103;48.316;11.558;2023-08-12T00:50:09;25.20;42.30
30288;DHT22;17103;48.316;11.558;2023-08-12T00:52:36;25.30;42.50
30288;DHT22;17103;48.316;11.558;2023-08-12T00:55:03;25.40;42.50
30288;DHT22;17103;48.316;11.558;2023-08-12T00:57:28;25.20;42.50
30288;DHT22;17103;48.316;11.558;2023-08-12T00:59:55;25.10;42.50
30288;DHT22;17103;48.316;11.558;2023-08-12T01:02:21;25.20;42.70
30288;DHT22;17103;48.316;11.558;2023-08-12T01:04:47;25.10;42.60
30288;DHT22;17103;48.316;11.558;2023-08-12T01:07:12;25.10;42.70
30288;DHT22;17103;48.316;11.558;2023-08-12T01:09:38;25.10;42.80
30288;DHT22;17103;48.316;11.558;2023-08-12T01:12:18;25.00;43.30
30288;DHT22;17103;48.316;11.558;2023-08-12T01:17:26;25.00;43.10
30288;DHT22;17103;48.316;11.558;2023-08-12T01:19:54;25.00;43.00
30288;DHT22;17103;48.316;11.558;2023-08-12T01:22:23;25.00;43.00
30288;DHT22;17103;48.316;11.558;2023-08-12T01:24:51;24.90;43.10
30288;DHT22;17103;48.316;11.558;2023-08-12T01:27:17;24.90;43.10
30288;DHT22;17103;48.316;11.558;2023-08-12T01:29:45;24.80;43.10
30288;DHT22;17103;48.316;11.558;2023-08-12T01:35:21;24.80;43.40
30288;DHT22;17103;48.316;11.558;2023-08-12T01:37:51;24.80;43.40
30288;DHT22;17103;48.316;11.558;2023-08-12T01:40:19;24.70;43.30
30288;DHT22;17103;48.316;11.558;2023-08-12T01:42:45;24.70;43.30
30288;DHT22;17103;48.316;11.558;2023-08-12T01:45:11;24.80;43.50
30288;DHT22;17103;48.316;11.558;2023-08-12T01:47:37;24.60;43.40
30288;DHT22;17103;48.316;11.558;2023-08-12T01:50:03;24.60;43.50
30288;DHT22;17103;48.316;11.558;2023-08-12T01:52:29;24.60;43.50
30288;DHT22;17103;48.316;11.558;2023-08-12T01:54:56;24.60;43.50
30288;DHT22;17103;48.316;11.558;2023-08-12T01:57:21;24.50;43.50
30288;DHT22;17103;48.316;11.558;2023-08-12T01:59:47;24.50;43.50
30288;DHT22;17103;48.316;11.558;2023-08-12T02:02:13;24.50;43.60
30288;DHT22;17103;48.316;11.558;2023-08-12T02:04:39;24.50;43.70
30288;DHT22;17103;48.316;11.558;2023-08-12T02:07:05;24.50;44.30
30288;DHT22;17103;48.316;11.558;2023-08-12T02:09:31;24.50;43.80
30288;DHT22;17103;48.316;11.558;2023-08-12T02:11:57;24.40;43.70
30288;DHT22;17103;48.316;11.558;2023-08-12T02:14:23;24.50;43.90
30288;DHT22;17103;48.316;11.558;2023-08-12T02:16:48;24.30;43.80
30288;DHT22;17103;48.316;11.558;2023-08-12T02:19:14;24.30;43.80
30288;DHT22;17103;48.316;11.558;2023-08-12T02:21:41;24.40;44.00
30288;DHT22;17103;48.316;11.558;2023-08-12T02:24:07;24.20;43.90
30288;DHT22;17103;48.316;11.558;2023-08-12T02:26:33;24.30;44.00
30288;DHT22;17103;48.316;11.558;2023-08-12T02:28:59;24.30;44.10
30288;DHT22;17103;48.316;11.558;2023-08-12T02:31:25;24.30;44.10
30288;DHT22;17103;48.316;11.558;2023-08-12T02:33:50;24.20;44.10
30288;DHT22;17103;48.316;11.558;2023-08-12T02:36:16;24.20;44.20
30288;DHT22;17103;48.316;11.558;2023-08-12T02:38:42;24.20;44.20
30288;DHT22;17103;48.316;11.558;2023-08-12T02:41:07;24.20;44.20
30288;DHT22;17103;48.316;11.558;2023-08-12T02:43:33;24.30;44.40
30288;DHT22;17103;48.316;11.558;2023-08-12T02:45:58;24.20;44.40
30288;DHT22;17103;48.316;11.558;2023-08-12T02:48:24;24.10;44.40
30288;DHT22;17103;48.316;11.558;2023-08-12T02:50:50;24.00;44.30
30288;DHT22;17103;48.316;11.558;2023-08-12T02:53:15;24.00;44.40
30288;DHT22;17103;48.316;11.558;2023-08-12T02:55:41;24.00;44.40
30288;DHT22;17103;48.316;11.558;2023-08-12T02:58:07;23.90;44.40
30288;DHT22;17103;48.316;11.558;2023-08-12T03:00:32;24.00;44.60
30288;DHT22;17103;48.316;11.558;2023-08-12T03:02:58;24.00;44.60
30288;DHT22;17103;48.316;11.558;2023-08-12T03:05:24;23.90;44.50
30288;DHT22;17103;48.316;11.558;2023-08-12T03:07:50;24.00;44.60
30288;DHT22;17103;48.316;11.558;2023-08-12T03:10:17;23.80;44.50
30288;DHT22;17103;48.316;11.558;2023-08-12T03:12:42;23.90;44.60
30288;DHT22;17103;48.316;11.558;2023-08-12T03:15:10;23.90;44.60
30288;DHT22;17103;48.316;11.558;2023-08-12T03:17:36;23.80;44.60
30288;DHT22;17103;48.316;11.558;2023-08-12T03:20:05;23.90;44.80
30288;DHT22;17103;48.316;11.558;2023-08-12T03:22:31;23.80;44.70
30288;DHT22;17103;48.316;11.558;2023-08-12T03:24:57;23.80;44.70
30288;DHT22;17103;48.316;11.558;2023-08-12T03:27:23;23.70;44.70
30288;DHT22;17103;48.316;11.558;2023-08-12T03:29:49;23.60;44.70
30288;DHT22;17103;48.316;11.558;2023-08-12T03:32:16;23.70;44.80
30288;DHT22;17103;48.316;11.558;2023-08-12T03:34:41;23.70;44.90
30288;DHT22;17103;48.316;11.558;2023-08-12T03:37:07;23.70;44.90
30288;DHT22;17103;48.316;11.558;2023-08-12T03:39:33;23.60;44.90
30288;DHT22;17103;48.316;11.558;2023-08-12T03:41:58;23.60;44.90
30288;DHT22;17103;48.316;11.558;2023-08-12T03:44:24;23.60;44.90
30288;DHT22;17103;48.316;11.558;2023-08-12T03:46:52;23.60;45.00
30288;DHT22;17103;48.316;11.558;2023-08-12T03:49:17;23.60;45.10
30288;DHT22;17103;48.316;11.558;2023-08-12T03:51:44;23.50;45.00
30288;DHT22;17103;48.316;11.558;2023-08-12T03:54:09;23.60;45.20
30288;DHT22;17103;48.316;11.558;2023-08-12T03:56:35;23.50;45.10
30288;DHT22;17103;48.316;11.558;2023-08-12T03:59:01;23.50;45.10
30288;DHT22;17103;48.316;11.558;2023-08-12T04:01:26;23.60;45.30
30288;DHT22;17103;48.316;11.558;2023-08-12T04:03:53;23.50;45.20
30288;DHT22;17103;48.316;11.558;2023-08-12T04:06:18;23.40;45.20
30288;DHT22;17103;48.316;11.558;2023-08-12T04:08:44;23.40;45.20
30288;DHT22;17103;48.316;11.558;2023-08-12T04:11:10;23.50;45.30
30288;DHT22;17103;48.316;11.558;2023-08-12T04:13:35;23.50;45.40
30288;DHT22;17103;48.316;11.558;2023-08-12T04:16:01;23.50;45.40
30288;DHT22;17103;48.316;11.558;2023-08-12T04:18:27;23.50;45.50
30288;DHT22;17103;48.316;11.558;2023-08-12T04:20:53;23.50;45.50
30288;DHT22;17103;48.316;11.558;2023-08-12T04:23:18;23.30;45.50
30288;DHT22;17103;48.316;11.558;2023-08-12T04:25:48;23.40;45.50
30288;DHT22;17103;48.316;11.558;2023-08-12T04:28:15;23.30;45.00
30288;DHT22;17103;48.316;11.558;2023-08-12T04:30:49;23.40;45.60
30288;DHT22;17103;48.316;11.558;2023-08-12T04:33:18;23.30;45.80
30288;DHT22;17103;48.316;11.558;2023-08-12T04:35:45;23.20;45.60
30288;DHT22;17103;48.316;11.558;2023-08-12T04:38:11;23.30;45.70
30288;DHT22;17103;48.316;11.558;2023-08-12T04:40:40;23.30;45.80
30288;DHT22;17103;48.316;11.558;2023-08-12T04:43:06;23.30;46.00
30288;DHT22;17103;48.316;11.558;2023-08-12T04:45:32;23.30;46.00
30288;DHT22;17103;48.316;11.558;2023-08-12T04:47:58;23.30;46.10
30288;DHT22;17103;48.316;11.558;2023-08-12T04:50:25;23.30;46.10
30288;DHT22;17103;48.316;11.558;2023-08-12T04:52:50;23.30;46.10
30288;DHT22;17103;48.316;11.558;2023-08-12T04:55:16;23.20;46.00
30288;DHT22;17103;48.316;11.558;2023-08-12T04:57:42;23.30;46.10
30288;DHT22;17103;48.316;11.558;2023-08-12T05:00:08;23.30;46.20
30288;DHT22;17103;48.316;11.558;2023-08-12T05:02:34;23.30;46.20
30288;DHT22;17103;48.316;11.558;2023-08-12T05:05:00;23.30;46.30
30288;DHT22;17103;48.316;11.558;2023-08-12T05:07:26;23.30;46.30
30288;DHT22;17103;48.316;11.558;2023-08-12T05:09:52;23.30;46.40
30288;DHT22;17103;48.316;11.558;2023-08-12T05:12:18;23.40;46.50
30288;DHT22;17103;48.316;11.558;2023-08-12T05:14:44;23.40;46.50
30288;DHT22;17103;48.316;11.558;2023-08-12T05:17:09;23.40;46.60
30288;DHT22;17103;48.316;11.558;2023-08-12T05:19:35;23.30;46.50
30288;DHT22;17103;48.316;11.558;2023-08-12T05:22:01;23.40;46.60
30288;DHT22;17103;48.316;11.558;2023-08-12T05:24:26;23.40;46.70
30288;DHT22;17103;48.316;11.558;2023-08-12T05:26:52;23.50;46.70
30288;DHT22;17103;48.316;11.558;2023-08-12T05:29:18;23.50;46.80
30288;DHT22;17103;48.316;11.558;2023-08-12T05:31:43;23.30;46.70
30288;DHT22;17103;48.316;11.558;2023-08-12T05:34:09;23.50;46.90
30288;DHT22;17103;48.316;11.558;2023-08-12T05:36:35;23.60;47.00
30288;DHT22;17103;48.316;11.558;2023-08-12T05:39:01;23.60;47.10
30288;DHT22;17103;48.316;11.558;2023-08-12T05:41:28;23.70;47.20
30288;DHT22;17103;48.316;11.558;2023-08-12T05:43:54;23.70;47.20
30288;DHT22;17103;48.316;11.558;2023-08-12T05:46:21;23.50;47.00
30288;DHT22;17103;48.316;11.558;2023-08-12T05:48:49;23.60;47.10
30288;DHT22;17103;48.316;11.558;2023-08-12T05:51:14;23.60;47.30
30288;DHT22;17103;48.316;11.558;2023-08-12T05:53:40;23.60;47.30
30288;DHT22;17103;48.316;11.558;2023-08-12T05:56:06;23.50;47.10
30288;DHT22;17103;48.316;11.558;2023-08-12T05:58:31;23.50;47.20
30288;DHT22;17103;48.316;11.558;2023-08-12T06:00:57;23.50;47.20
30288;DHT22;17103;48.316;11.558;2023-08-12T06:03:22;23.60;47.40
30288;DHT22;17103;48.316;11.558;2023-08-12T06:05:48;23.40;47.40
30288;DHT22;17103;48.316;11.558;2023-08-12T06:08:14;23.60;47.60
30288;DHT22;17103;48.316;11.558;2023-08-12T06:10:40;23.60;47.70
30288;DHT22;17103;48.316;11.558;2023-08-12T06:13:06;23.60;47.70
30288;DHT22;17103;48.316;11.558;2023-08-12T06:15:32;23.60;47.90
30288;DHT22;17103;48.316;11.558;2023-08-12T06:18:02;23.60;48.00
30288;DHT22;17103;48.316;11.558;2023-08-12T06:20:28;23.60;47.90
30288;DHT22;17103;48.316;11.558;2023-08-12T06:22:53;23.60;48.00
30288;DHT22;17103;48.316;11.558;2023-08-12T06:25:19;23.70;48.30
30288;DHT22;17103;48.316;11.558;2023-08-12T06:27:45;23.70;48.20
30288;DHT22;17103;48.316;11.558;2023-08-12T06:30:12;23.70;48.30
30288;DHT22;17103;48.316;11.558;2023-08-12T06:32:38;23.80;48.60
30288;DHT22;17103;48.316;11.558;2023-08-12T06:35:04;23.90;48.80
30288;DHT22;17103;48.316;11.558;2023-08-12T06:37:30;23.80;48.80
30288;DHT22;17103;48.316;11.558;2023-08-12T06:39:55;24.00;48.50
30288;DHT22;17103;48.316;11.558;2023-08-12T06:42:22;24.00;48.70
30288;DHT22;17103;48.316;11.558;2023-08-12T06:44:54;24.10;48.80
30288;DHT22;17103;48.316;11.558;2023-08-12T06:47:20;24.10;49.10
30288;DHT22;17103;48.316;11.558;2023-08-12T06:49:46;24.30;49.00
30288;DHT22;17103;48.316;11.558;2023-08-12T06:52:11;24.20;48.70
30288;DHT22;17103;48.316;11.558;2023-08-12T06:54:37;24.30;48.90
30288;DHT22;17103;48.316;11.558;2023-08-12T06:57:03;24.30;48.80
30288;DHT22;17103;48.316;11.558;2023-08-12T06:59:29;24.40;48.90
30288;DHT22;17103;48.316;11.558;2023-08-12T07:01:54;24.50;49.00
30288;DHT22;17103;48.316;11.558;2023-08-12T07:04:20;24.50;49.10
30288;DHT22;17103;48.316;11.558;2023-08-12T07:06:46;24.60;49.00
30288;DHT22;17103;48.316;11.558;2023-08-12T07:09:12;24.50;49.10
30288;DHT22;17103;48.316;11.558;2023-08-12T07:11:38;24.60;49.20
30288;DHT22;17103;48.316;11.558;2023-08-12T07:14:04;24.70;48.60
30288;DHT22;17103;48.316;11.558;2023-08-12T07:16:29;24.70;49.10
30288;DHT22;17103;48.316;11.558;2023-08-12T07:18:55;24.60;48.90
30288;DHT22;17103;48.316;11.558;2023-08-12T07:21:21;24.90;49.20
30288;DHT22;17103;48.316;11.558;2023-08-12T07:23:47;24.80;49.40
30288;DHT22;17103;48.316;11.558;2023-08-12T07:26:12;24.90;49.90
30288;DHT22;17103;48.316;11.558;2023-08-12T07:28:38;25.00;49.40
30288;DHT22;17103;48.316;11.558;2023-08-12T07:31:04;25.10;49.30
30288;DHT22;17103;48.316;11.558;2023-08-12T07:33:29;25.10;49.10
30288;DHT22;17103;48.316;11.558;2023-08-12T07:35:55;25.10;48.90
30288;DHT22;17103;48.316;11.558;2023-08-12T07:38:20;25.10;49.00
30288;DHT22;17103;48.316;11.558;2023-08-12T07:40:47;25.20;49.10
30288;DHT22;17103;48.316;11.558;2023-08-12T07:43:13;25.20;49.20
30288;DHT22;17103;48.316;11.558;2023-08-12T07:45:39;25.30;49.10
30288;DHT22;17103;48.316;11.558;2023-08-12T07:48:04;25.40;49.20
30288;DHT22;17103;48.316;11.558;2023-08-12T07:50:30;25.50;49.20
30288;DHT22;17103;48.316;11.558;2023-08-12T07:52:56;25.60;48.70
30288;DHT22;17103;48.316;11.558;2023-08-12T07:55:21;25.60;48.60
30288;DHT22;17103;48.316;11.558;2023-08-12T07:57:47;25.80;48.40
30288;DHT22;17103;48.316;11.558;2023-08-12T08:00:13;25.70;48.30
30288;DHT22;17103;48.316;11.558;2023-08-12T08:02:39;25.90;48.30
30288;DHT22;17103;48.316;11.558;2023-08-12T08:05:05;26.00;48.40
30288;DHT22;17103;48.316;11.558;2023-08-12T08:07:30;26.10;48.30
30288;DHT22;17103;48.316;11.558;2023-08-12T08:09:57;26.10;48.20
30288;DHT22;17103;48.316;11.558;2023-08-12T08:12:23;26.20;48.00
30288;DHT22;17103;48.316;11.558;2023-08-12T08:14:48;26.30;47.80
30288;DHT22;17103;48.316;11.558;2023-08-12T08:17:14;26.40;48.10
30288;DHT22;17103;48.316;11.558;2023-08-12T08:19:40;26.40;48.30
30288;DHT22;17103;48.316;11.558;2023-08-12T08:22:05;26.60;47.90
30288;DHT22;17103;48.316;11.558;2023-08-12T08:24:31;26.70;48.00
30288;DHT22;17103;48.316;11.558;2023-08-12T08:26:57;26.80;48.10
30288;DHT22;17103;48.316;11.558;2023-08-12T08:29:22;26.90;47.50
30288;DHT22;17103;48.316;11.558;2023-08-12T08:31:48;27.00;47.40
30288;DHT22;17103;48.316;11.558;2023-08-12T08:34:15;27.10;47.30
30288;DHT22;17103;48.316;11.558;2023-08-12T08:36:40;27.20;47.20
30288;DHT22;17103;48.316;11.558;2023-08-12T08:39:06;27.30;47.20
30288;DHT22;17103;48.316;11.558;2023-08-12T08:41:32;27.40;47.10
30288;DHT22;17103;48.316;11.558;2023-08-12T08:44:02;27.50;47.10
30288;DHT22;17103;48.316;11.558;2023-08-12T08:46:32;27.60;47.10
30288;DHT22;17103;48.316;11.558;2023-08-12T08:49:02;27.60;47.00
30288;DHT22;17103;48.316;11.558;2023-08-12T08:51:30;27.80;47.40
30288;DHT22;17103;48.316;11.558;2023-08-12T08:53:57;27.80;47.00
30288;DHT22;17103;48.316;11.558;2023-08-12T08:56:23;27.90;46.80
30288;DHT22;17103;48.316;11.558;2023-08-12T08:58:49;28.00;46.70
30288;DHT22;17103;48.316;11.558;2023-08-12T09:01:18;28.10;46.70
30288;DHT22;17103;48.316;11.558;2023-08-12T09:03:45;28.10;46.80
30288;DHT22;17103;48.316;11.558;2023-08-12T09:06:12;28.10;46.90
30288;DHT22;17103;48.316;11.558;2023-08-12T09:08:38;28.20;47.00
30288;DHT22;17103;48.316;11.558;2023-08-12T09:11:05;28.30;47.20
30288;DHT22;17103;48.316;11.558;2023-08-12T09:13:31;28.40;47.10
30288;DHT22;17103;48.316;11.558;2023-08-12T09:15:57;28.40;46.60
30288;DHT22;17103;48.316;11.558;2023-08-12T09:18:22;28.40;46.50
30288;DHT22;17103;48.316;11.558;2023-08-12T09:20:51;28.50;46.40
30288;DHT22;17103;48.316;11.558;2023-08-12T09:23:18;28.50;46.40
30288;DHT22;17103;48.316;11.558;2023-08-12T09:25:44;28.60;46.50
30288;DHT22;17103;48.316;11.558;2023-08-12T09:28:10;28.60;46.40
30288;DHT22;17103;48.316;11.558;2023-08-12T09:30:37;28.70;46.40
30288;DHT22;17103;48.316;11.558;2023-08-12T09:33:05;28.70;46.20
30288;DHT22;17103;48.316;11.558;2023-08-12T09:35:40;28.80;46.40
30288;DHT22;17103;48.316;11.558;2023-08-12T09:38:10;28.90;45.90
30288;DHT22;17103;48.316;11.558;2023-08-12T09:40:36;28.90;45.90
30288;DHT22;17103;48.316;11.558;2023-08-12T09:43:03;29.00;45.90
30288;DHT22;17103;48.316;11.558;2023-08-12T09:45:30;29.00;45.80
30288;DHT22;17103;48.316;11.558;2023-08-12T09:47:55;29.10;45.80
30288;DHT22;17103;48.316;11.558;2023-08-12T09:50:22;29.10;46.00
30288;DHT22;17103;48.316;11.558;2023-08-12T09:52:48;29.20;45.80
30288;DHT22;17103;48.316;11.558;2023-08-12T09:55:16;29.30;46.10
30288;DHT22;17103;48.316;11.558;2023-08-12T09:57:43;29.30;45.10
30288;DHT22;17103;48.316;11.558;2023-08-12T10:00:11;29.30;45.20
30288;DHT22;17103;48.316;11.558;2023-08-12T10:02:43;29.30;45.30
30288;DHT22;17103;48.316;11.558;2023-08-12T10:05:12;29.40;45.60
30288;DHT22;17103;48.316;11.558;2023-08-12T10:07:39;29.50;45.80
30288;DHT22;17103;48.316;11.558;2023-08-12T10:10:06;29.50;45.50
30288;DHT22;17103;48.316;11.558;2023-08-12T10:12:33;29.50;45.40
30288;DHT22;17103;48.316;11.558;2023-08-12T10:15:00;29.60;45.60
30288;DHT22;17103;48.316;11.558;2023-08-12T10:17:26;29.60;45.60
30288;DHT22;17103;48.316;11.558;2023-08-12T10:19:56;29.60;45.50
30288;DHT22;17103;48.316;11.558;2023-08-12T10:22:25;29.70;45.60
30288;DHT22;17103;48.316;11.558;2023-08-12T10:24:51;29.70;45.20
30288;DHT22;17103;48.316;11.558;2023-08-12T10:27:18;29.80;45.10
30288;DHT22;17103;48.316;11.558;2023-08-12T10:29:43;29.80;44.80
30288;DHT22;17103;48.316;11.558;2023-08-12T10:32:09;29.80;45.00
30288;DHT22;17103;48.316;11.558;2023-08-12T10:34:35;29.90;44.90
30288;DHT22;17103;48.316;11.558;2023-08-12T10:37:02;30.00;45.00
30288;DHT22;17103;48.316;11.558;2023-08-12T10:39:29;30.00;44.60
30288;DHT22;17103;48.316;11.558;2023-08-12T10:41:56;30.00;44.70
30288;DHT22;17103;48.316;11.558;2023-08-12T10:44:24;30.00;44.40
30288;DHT22;17103;48.316;11.558;2023-08-12T10:46:52;30.10;44.60
30288;DHT22;17103;48.316;11.558;2023-08-12T10:49:19;30.10;44.50
30288;DHT22;17103;48.316;11.558;2023-08-12T10:51:53;30.20;44.60
30288;DHT22;17103;48.316;11.558;2023-08-12T10:57:07;30.30;43.90
30288;DHT22;17103;48.316;11.558;2023-08-12T11:04:57;30.50;43.60
30288;DHT22;17103;48.316;11.558;2023-08-12T11:10:25;30.60;43.30
30288;DHT22;17103;48.316;11.558;2023-08-12T11:15:17;30.60;43.20
30288;DHT22;17103;48.316;11.558;2023-08-12T11:17:46;30.70;43.60
30288;DHT22;17103;48.316;11.558;2023-08-12T11:20:13;30.80;43.10
30288;DHT22;17103;48.316;11.558;2023-08-12T11:22:43;30.80;43.20
30288;DHT22;17103;48.316;11.558;2023-08-12T11:25:11;30.80;42.60
30288;DHT22;17103;48.316;11.558;2023-08-12T11:27:41;30.90;43.20
30288;DHT22;17103;48.316;11.558;2023-08-12T11:30:08;30.90;42.80
30288;DHT22;17103;48.316;11.558;2023-08-12T11:32:36;30.90;42.60
30288;DHT22;17103;48.316;11.558;2023-08-12T11:35:03;30.90;42.90
30288;DHT22;17103;48.316;11.558;2023-08-12T11:37:31;30.90;42.10
30288;DHT22;17103;48.316;11.558;2023-08-12T11:39:57;31.00;42.70
30288;DHT22;17103;48.316;11.558;2023-08-12T11:42:22;31.00;42.60
30288;DHT22;17103;48.316;11.558;2023-08-12T11:44:48;31.00;42.50
30288;DHT22;17103;48.316;11.558;2023-08-12T11:47:14;31.00;42.80
30288;DHT22;17103;48.316;11.558;2023-08-12T11:49:39;31.20;42.50
30288;DHT22;17103;48.316;11.558;2023-08-12T11:52:05;31.20;42.30
30288;DHT22;17103;48.316;11.558;2023-08-12T11:54:31;31.30;42.30
30288;DHT22;17103;48.316;11.558;2023-08-12T11:56:58;31.30;41.90
30288;DHT22;17103;48.316;11.558;2023-08-12T11:59:24;31.40;42.30
30288;DHT22;17103;48.316;11.558;2023-08-12T12:01:51;31.50;42.20
30288;DHT22;17103;48.316;11.558;2023-08-12T12:04:17;31.60;41.40
30288;DHT22;17103;48.316;11.558;2023-08-12T12:06:46;31.60;41.30
30288;DHT22;17103;48.316;11.558;2023-08-12T12:09:13;31.70;41.00
30288;DHT22;17103;48.316;11.558;2023-08-12T12:11:41;31.80;41.10
30288;DHT22;17103;48.316;11.558;2023-08-12T12:14:08;31.80;41.00
30288;DHT22;17103;48.316;11.558;2023-08-12T12:16:45;31.90;41.10
30288;DHT22;17103;48.316;11.558;2023-08-12T12:19:19;32.00;40.70
30288;DHT22;17103;48.316;11.558;2023-08-12T12:21:47;32.10;41.60
30288;DHT22;17103;48.316;11.558;2023-08-12T12:24:13;32.20;41.30
30288;DHT22;17103;48.316;11.558;2023-08-12T12:26:39;32.30;41.10
30288;DHT22;17103;48.316;11.558;2023-08-12T12:29:05;32.30;40.70
30288;DHT22;17103;48.316;11.558;2023-08-12T12:31:35;32.40;41.00
30288;DHT22;17103;48.316;11.558;2023-08-12T12:34:04;32.50;40.30
30288;DHT22;17103;48.316;11.558;2023-08-12T12:36:31;32.60;40.70
30288;DHT22;17103;48.316;11.558;2023-08-12T12:38:57;32.70;40.50
30288;DHT22;17103;48.316;11.558;2023-08-12T12:41:22;32.80;39.80
30288;DHT22;17103;48.316;11.558;2023-08-12T12:43:48;32.80;40.10
30288;DHT22;17103;48.316;11.558;2023-08-12T12:46:15;32.80;40.70
30288;DHT22;17103;48.316;11.558;2023-08-12T12:48:42;33.00;40.10
30288;DHT22;17103;48.316;11.558;2023-08-12T12:51:07;33.00;39.80
30288;DHT22;17103;48.316;11.558;2023-08-12T12:53:33;33.10;39.20
30288;DHT22;17103;48.316;11.558;2023-08-12T12:55:59;33.20;38.60
30288;DHT22;17103;48.316;11.558;2023-08-12T12:58:32;33.20;38.50
30288;DHT22;17103;48.316;11.558;2023-08-12T13:01:02;33.30;38.50
30288;DHT22;17103;48.316;11.558;2023-08-12T13:03:29;33.30;38.40
30288;DHT22;17103;48.316;11.558;2023-08-12T13:05:55;33.30;38.00
30288;DHT22;17103;48.316;11.558;2023-08-12T13:08:22;33.40;38.10
30288;DHT22;17103;48.316;11.558;2023-08-12T13:10:48;33.40;38.20
30288;DHT22;17103;48.316;11.558;2023-08-12T13:13:15;33.40;38.30
30288;DHT22;17103;48.316;11.558;2023-08-12T13:15:44;33.50;38.50
30288;DHT22;17103;48.316;11.558;2023-08-12T13:18:10;33.50;37.70
30288;DHT22;17103;48.316;11.558;2023-08-12T13:20:36;33.50;37.20
30288;DHT22;17103;48.316;11.558;2023-08-12T13:23:02;33.50;38.10
30288;DHT22;17103;48.316;11.558;2023-08-12T13:25:30;33.50;37.90
30288;DHT22;17103;48.316;11.558;2023-08-12T13:27:56;33.50;37.10
30288;DHT22;17103;48.316;11.558;2023-08-12T13:30:22;33.50;38.00
30288;DHT22;17103;48.316;11.558;2023-08-12T13:32:47;33.50;37.20
30288;DHT22;17103;48.316;11.558;2023-08-12T13:35:13;33.50;37.50
30288;DHT22;17103;48.316;11.558;2023-08-12T13:37:39;33.60;37.90
30288;DHT22;17103;48.316;11.558;2023-08-12T13:40:05;33.60;37.10
30288;DHT22;17103;48.316;11.558;2023-08-12T13:42:31;33.70;37.60
30288;DHT22;17103;48.316;11.558;2023-08-12T13:44:56;33.80;37.00
30288;DHT22;17103;48.316;11.558;2023-08-12T13:47:22;33.90;36.80
30288;DHT22;17103;48.316;11.558;2023-08-12T13:49:48;34.00;36.50
30288;DHT22;17103;48.316;11.558;2023-08-12T13:52:13;34.10;36.20
30288;DHT22;17103;48.316;11.558;2023-08-12T13:54:39;34.20;36.10
30288;DHT22;17103;48.316;11.558;2023-08-12T13:57:04;34.40;36.50
30288;DHT22;17103;48.316;11.558;2023-08-12T13:59:30;34.50;37.30
30288;DHT22;17103;48.316;11.558;2023-08-12T14:01:56;34.60;37.10
30288;DHT22;17103;48.316;11.558;2023-08-12T14:04:21;34.80;36.70
30288;DHT22;17103;48.316;11.558;2023-08-12T14:06:47;34.90;36.00
30288;DHT22;17103;48.316;11.558;2023-08-12T14:09:13;35.00;34.90
30288;DHT22;17103;48.316;11.558;2023-08-12T14:11:40;35.10;35.10
30288;DHT22;17103;48.316;11.558;2023-08-12T14:14:05;35.10;34.40
30288;DHT22;17103;48.316;11.558;2023-08-12T14:16:31;35.20;33.70
30288;DHT22;17103;48.316;11.558;2023-08-12T14:18:57;35.20;34.10
30288;DHT22;17103;48.316;11.558;2023-08-12T14:21:22;35.20;33.50
30288;DHT22;17103;48.316;11.558;2023-08-12T14:23:48;35.20;33.90
30288;DHT22;17103;48.316;11.558;2023-08-12T14:26:13;35.10;34.20
30288;DHT22;17103;48.316;11.558;2023-08-12T14:28:39;35.10;34.30
30288;DHT22;17103;48.316;11.558;2023-08-12T14:31:05;35.20;34.30
30288;DHT22;17103;48.316;11.558;2023-08-12T14:33:30;35.20;33.80
30288;DHT22;17103;48.316;11.558;2023-08-12T14:36:00;35.30;33.90
30288;DHT22;17103;48.316;11.558;2023-08-12T14:38:25;35.30;34.40
30288;DHT22;17103;48.316;11.558;2023-08-12T14:40:51;35.40;33.70
30288;DHT22;17103;48.316;11.558;2023-08-12T14:43:17;35.40;32.80
30288;DHT22;17103;48.316;11.558;2023-08-12T14:45:46;35.30;33.00
30288;DHT22;17103;48.316;11.558;2023-08-12T14:48:12;35.20;33.00
30288;DHT22;17103;48.316;11.558;2023-08-12T14:50:38;35.10;33.30
30288;DHT22;17103;48.316;11.558;2023-08-12T14:53:04;35.00;33.50
30288;DHT22;17103;48.316;11.558;2023-08-12T14:55:29;34.90;33.60
30288;DHT22;17103;48.316;11.558;2023-08-12T14:57:56;34.80;33.80
30288;DHT22;17103;48.316;11.558;2023-08-12T15:00:22;34.70;34.20
30288;DHT22;17103;48.316;11.558;2023-08-12T15:02:48;34.50;34.00
30288;DHT22;17103;48.316;11.558;2023-08-12T15:05:14;34.30;34.50
30288;DHT22;17103;48.316;11.558;2023-08-12T15:07:39;34.20;34.80
30288;DHT22;17103;48.316;11.558;2023-08-12T15:10:05;34.00;35.60
30288;DHT22;17103;48.316;11.558;2023-08-12T15:12:31;33.70;36.20
30288;DHT22;17103;48.316;11.558;2023-08-12T15:14:57;33.50;36.60
30288;DHT22;17103;48.316;11.558;2023-08-12T15:17:23;33.30;37.00
30288;DHT22;17103;48.316;11.558;2023-08-12T15:19:48;33.20;37.40
30288;DHT22;17103;48.316;11.558;2023-08-12T15:22:15;33.00;37.70
30288;DHT22;17103;48.316;11.558;2023-08-12T15:24:40;32.80;37.90
30288;DHT22;17103;48.316;11.558;2023-08-12T15:27:06;32.70;38.10
30288;DHT22;17103;48.316;11.558;2023-08-12T15:29:32;32.60;38.10